• Join FlightAware (Why Join?)
  • Login
  • US Flag 
10:19AM EST


 

Airport Tracker/Info


-or-


 

Live Flight TrackerFlight Track Log ✈ N315CJ ✈ 22-Nov-2013 ✈ KYIP - KORF

Flight Track Log - Related Links

Times and Time Zones

All times are in EST time to prevent confusion due to time zone crossing. See the N315CJ flight status page for this flight to view local times or setup timezone preferences in your user account.

Time Position Orientation Groundspeed Altitude Reporting Facility
EST Latitude Longitude Course Direction KTS MPH feet Rate Location/Type
06:47AM 42.2208 -83.5525 224° Southwest 195 224 1,600  Level Cleveland Center
06:48AM 42.2092 -83.5678 224° Southwest 194 223 2,500 2,100 Climbing Cleveland Center
06:49AM 42.2089 -83.6317 270° West 234 269 4,600 2,400 Climbing Cleveland Center
06:49AM 42.2164 -83.6336 349° North 211 243 5,200 3,900 Climbing Cleveland Center
06:50AM 42.2667 -83.6325 North 240 276 7,800 2,700 Climbing Cleveland Center
06:50AM 42.2733 -83.6317 North 229 264 8,000 3,060 Climbing Cleveland Center
06:51AM 42.3019 -83.5456 66° East 275 316 11,600 3,120 Climbing Cleveland Center
06:52AM 42.2806 -83.4306 104° East 308 354 14,400 2,640 Climbing Cleveland Center
06:53AM 42.2561 -83.3147 106° East 317 365 17,100 2,520 Climbing Cleveland Center
06:54AM 42.2314 -83.1886 105° East 335 386 19,600 2,340 Climbing Cleveland Center
06:55AM 42.1997 -83.0575 108° East 368 423 21,900 2,040 Climbing Cleveland Center
06:56AM 42.1742 -82.9142 103° East 397 457 23,900 1,920 Climbing Cleveland Center
06:57AM 42.1461 -82.7633 104° East 410 472 25,900 2,040 Climbing Cleveland Center
06:58AM 42.1086 -82.5844 106° East 418 481 28,200 1,980 Climbing Cleveland Center
06:59AM 42.0783 -82.4267 104° East 433 498 30,000 1,800 Climbing Cleveland Center
07:00AM 42.0567 -82.2656 100° East 439 505 32,000 2,040 Climbing Cleveland Center
07:01AM 42.0236 -82.1039 105° East 434 499 34,200 1,800 Climbing Cleveland Center
07:02AM 41.9508 -81.9956 132° Southeast 384 442 35,800 1,560 Climbing Cleveland Center
07:03AM 41.8678 -81.9175 145° Southeast 361 415 37,500 1,440 Climbing Cleveland Center
07:04AM 41.7867 -81.8392 144° Southeast 356 410 38,800 1,020 Climbing Cleveland Center
07:05AM 41.7053 -81.7628 145° Southeast 353 406 39,600 780 Climbing Cleveland Center
07:06AM 41.6192 -81.6936 149° Southeast 355 409 40,400 660 Climbing Cleveland Center
07:07AM 41.5306 -81.6272 151° Southeast 358 412 41,000 240 Climbing Cleveland Center
07:08AM 41.4347 -81.5561 151° Southeast 384 442 41,000  Level Cleveland Center
07:09AM 41.3364 -81.4853 152° Southeast 410 472 41,000  Level Cleveland Center
07:10AM 41.2214 -81.3997 151° Southeast 436 502 41,000  Level Cleveland Center
07:11AM 41.1092 -81.3189 152° Southeast 447 514 41,000  Level Cleveland Center
07:17AM 40.4837 -80.8689 152° Southeast 449 517 41,000  Level FlightAware ADS-B
07:18AM 40.4023 -80.8111 152° Southeast 450 518 41,000  Level FlightAware ADS-B
07:19AM 40.2370 -80.6941 152° Southeast 453 521 41,000  Level FlightAware ADS-B
07:21AM 40.0975 -80.5956 152° Southeast 452 520 41,000  Level Cleveland Center
07:22AM 39.9878 -80.5186 152° Southeast 453 521 41,000  Level Cleveland Center
07:23AM 39.8769 -80.4422 152° Southeast 452 520 41,000  Level Cleveland Center
07:24AM 39.7450 -80.3506 152° Southeast 453 521 41,000  Level Cleveland Center
07:25AM 39.6344 -80.2736 152° Southeast 453 521 41,000  Level Cleveland Center
07:26AM 39.5236 -80.1969 152° Southeast 453 521 41,000  Level Cleveland Center
07:27AM 39.4300 -80.1325 152° Southeast 448 516 41,000  Level Washington Center
07:28AM 39.3183 -80.0558 152° Southeast 448 516 41,000  Level Washington Center
07:29AM 39.2086 -79.9794 152° Southeast 453 521 41,000  Level Washington Center
07:30AM 39.1189 -79.9206 153° Southeast 453 521 41,000  Level Washington Center
07:31AM 38.9844 -79.8350 154° Southeast 453 521 41,000  Level Washington Center
07:32AM 38.8867 -79.7681 152° Southeast 453 521 41,000  Level Washington Center
07:33AM 38.7767 -79.6925 152° Southeast 446 513 41,000 -540 Level Washington Center
07:34AM 38.6686 -79.6200 152° Southeast 446 513 40,000 -1,320 Descending Washington Center
07:35AM 38.5628 -79.5481 152° Southeast 441 507 38,500 -1,680 Descending Washington Center
07:36AM 38.4442 -79.4700 153° Southeast 436 502 36,700 -2,100 Descending Washington Center
07:37AM 38.3422 -79.3986 151° Southeast 436 502 34,300 -2,940 Descending Washington Center
07:38AM 38.2339 -79.3297 153° Southeast 431 496 30,900 -3,480 Descending Washington Center
07:39AM 38.1317 -79.2611 152° Southeast 425 489 27,400 -1,980 Descending Washington Center
07:40AM 38.0336 -79.1956 152° Southeast 412 474 27,000 -240 Descending Washington Center
07:41AM 37.9394 -79.1333 152° Southeast 412 474 27,000  Level Washington Center
07:42AM 37.8725 -79.0039 123° Southeast 417 480 27,000  Level Washington Center
07:43AM 37.8308 -78.8519 109° East 428 493 27,000  Level Washington Center
07:44AM 37.7867 -78.7031 111° Southeast 435 501 27,000 -720 Level Washington Center
07:45AM 37.7467 -78.5569 109° East 440 506 25,600 -1,920 Descending Washington Center
07:46AM 37.7025 -78.4031 110° East 434 499 23,300 -2,100 Descending Washington Center
07:47AM 37.6597 -78.2650 111° Southeast 429 494 21,300 -1,200 Descending Washington Center
07:48AM 37.6186 -78.1322 111° Southeast 424 488 21,000 -180 Descending Washington Center
07:49AM 37.5775 -78.0000 111° Southeast 404 465 21,000  Level Washington Center
07:50AM 37.5406 -77.8706 110° East 398 458 21,000 -600 Level Washington Center
07:51AM 37.5242 -77.7364 99° East 393 452 19,900 -1,320 Descending Washington Center
07:52AM 37.5119 -77.5972 96° East 387 445 18,400 -1,320 Descending Washington Center
07:53AM 37.5039 -77.4608 94° East 387 445 17,300 -1,200 Descending Washington Center
07:54AM 37.4931 -77.3350 96° East 381 438 16,100 -600 Descending Washington Center
07:55AM 37.4847 -77.1908 94° East 339 390 16,000 -60 Descending Washington Center
07:55AM 37.4814 -77.1333 94° East 336 387 16,000  Level Washington Center
07:56AM 37.4756 -77.0964 101° East 336 387 16,000 60 Level Washington Center
07:56AM 37.4703 -77.0128 95° East 347 399 16,100  Climbing Washington Center
07:57AM 37.4667 -76.9733 97° East 336 387 16,000  Descending Washington Center
07:57AM 37.4614 -76.8869 94° East 362 417 16,100  Climbing Washington Center
07:58AM 37.4533 -76.8503 105° East 348 400 16,000 -240 Descending Washington Center
07:58AM 37.4439 -76.7533 97° East 366 421 15,900 -240 Descending Washington Center
07:59AM 37.4378 -76.7347 112° Southeast 360 414 15,800 -1,980 Descending Washington Center
07:59AM 37.3653 -76.6683 144° Southeast 339 390 13,700 -2,100 Descending Washington Center
08:00AM 37.3614 -76.6606 122° Southeast 329 379 13,700 -2,100 Level Washington Center
08:00AM 37.2889 -76.6022 147° Southeast 319 367 11,600 -2,100 Descending Washington Center
08:01AM 37.2889 -76.5969 90° East 321 369 11,600 -2,040 Level Washington Center
08:02AM 37.2081 -76.5383 150° Southeast 303 349 9,300 -1,680 Descending Washington Center
08:02AM 37.2164 -76.5386 358° North 315 362 9,600 -2,160 Climbing Washington Center
08:03AM 37.1375 -76.4778 148° Southeast 283 326 7,000 -2,700 Descending Washington Center
08:03AM 37.1356 -76.4750 131° Southeast 297 342 7,000 -1,920 Level Washington Center
08:04AM 37.0711 -76.4275 150° Southeast 272 313 5,100 -1,920 Descending Washington Center
08:04AM 37.0711 -76.4247 90° East 283 326 5,100  Level Washington Center
08:05AM 37.0131 -76.3775 147° Southeast 276 318 5,100 -900 Level Washington Center
08:06AM 36.9422 -76.3350 154° Southeast 243 280 3,400 -1,140 Descending Washington Center
08:07AM 36.8797 -76.3319 178° South 189 217 2,700 -1,020 Descending Washington Center
08:08AM 36.8531 -76.2719 119° Southeast 199 229 1,400 -1,140 Descending Washington Center
08:09AM 36.8761 -76.2228 60° Northeast 127 146 400 -960 Descending Washington Center